createdAt,value
2022-08-26T00:02:13.843Z,100537.78
2022-08-26T00:04:46.548Z,100538.56
2022-08-26T00:07:20.207Z,100530.03
2022-08-26T00:09:50.025Z,100518.81
2022-08-26T00:12:18.535Z,100532.09
2022-08-26T00:14:57.517Z,100526.41
2022-08-26T00:17:28.575Z,100523.53
2022-08-26T00:20:02.278Z,100523.13
2022-08-26T00:22:31.754Z,100518.31
2022-08-26T00:25:08.959Z,100515.06
2022-08-26T00:27:39.690Z,100521.94
2022-08-26T00:30:15.017Z,100524.78
2022-08-26T00:32:47.817Z,100525.59
2022-08-26T00:35:16.282Z,100525.97
2022-08-26T00:37:58.930Z,100520.28
2022-08-26T00:40:37.421Z,100530.47
2022-08-26T00:43:09.565Z,100521.16
2022-08-26T00:45:50.086Z,100520.69
2022-08-26T00:48:25.508Z,100521.94
2022-08-26T00:51:05.677Z,100517.06
2022-08-26T00:53:39.345Z,100517.06
2022-08-26T00:56:21.753Z,100514.22
2022-08-26T00:59:01.940Z,100505.75
2022-08-26T01:01:39.920Z,100515.81
2022-08-26T01:04:17.115Z,100510.91
2022-08-26T01:06:52.418Z,100503.31
2022-08-26T01:09:23.058Z,100507.66
2022-08-26T01:12:05.003Z,100504.81
2022-08-26T01:14:36.698Z,100508.03
2022-08-26T01:17:14.841Z,100514.06
2022-08-26T01:20:04.106Z,100505.91
2022-08-26T01:22:57.758Z,100503.06
2022-08-26T01:25:36.184Z,100478.34
2022-08-26T01:28:14.839Z,100490.03
2022-08-26T01:30:47.410Z,100475.88
2022-08-26T01:33:40.015Z,100484.34
2022-08-26T01:36:17.033Z,100485.13
2022-08-26T01:38:50.865Z,100469.78
2022-08-26T01:41:27.293Z,100481.03
2022-08-26T01:44:04.877Z,100467.38
2022-08-26T01:46:34.076Z,100484.34
2022-08-26T01:49:06.843Z,100482.28
2022-08-26T01:51:46.411Z,100480.25
2022-08-26T01:54:18.075Z,100484.69
2022-08-26T01:56:56.606Z,100482.28
2022-08-26T01:59:28.638Z,100479.06
2022-08-26T02:02:03.931Z,100488.41
2022-08-26T02:04:37.456Z,100481.19
2022-08-26T02:07:09.685Z,100484.03
2022-08-26T02:09:41.417Z,100484.88
2022-08-26T02:12:17.889Z,100473.50
2022-08-26T02:14:56.185Z,100475.97
2022-08-26T02:17:33.976Z,100491.44
2022-08-26T02:20:14.805Z,100487.81
2022-08-26T02:22:43.109Z,100484.97
2022-08-26T02:25:25.103Z,100484.16
2022-08-26T02:27:58.476Z,100482.53
2022-08-26T02:30:34.645Z,100479.69
2022-08-26T02:33:12.000Z,100470.88
2022-08-26T02:35:49.074Z,100476.41
2022-08-26T02:38:19.151Z,100475.25
2022-08-26T02:40:51.427Z,100472.84
2022-08-26T02:43:31.450Z,100471.22
2022-08-26T02:46:05.241Z,100461.47
2022-08-26T02:48:38.383Z,100464.31
2022-08-26T02:51:13.344Z,100459.84
2022-08-26T02:53:49.651Z,100460.69
2022-08-26T02:56:23.484Z,100461.88
2022-08-26T02:58:58.974Z,100457.00
2022-08-26T03:01:39.612Z,100452.56
2022-08-26T03:04:13.946Z,100452.13
2022-08-26T03:06:53.060Z,100454.97
2022-08-26T03:09:25.449Z,100454.59
2022-08-26T03:11:58.935Z,100444.41
2022-08-26T03:14:29.945Z,100458.28
2022-08-26T03:17:05.908Z,100451.41
2022-08-26T03:19:38.769Z,100441.69
2022-08-26T03:22:12.042Z,100444.47
2022-08-26T03:24:46.014Z,100438.84
2022-08-26T03:27:16.830Z,100444.47
2022-08-26T03:30:04.225Z,100437.97
2022-08-26T03:32:34.939Z,100432.75
2022-08-26T03:35:05.424Z,100435.59
2022-08-26T03:37:36.156Z,100444.91
2022-08-26T03:40:07.672Z,100433.91
2022-08-26T03:42:39.385Z,100432.75
2022-08-26T03:45:12.197Z,100440.91
2022-08-26T03:47:42.794Z,100444.91
2022-08-26T03:50:14.370Z,100444.91
2022-08-26T03:52:43.995Z,100437.97
2022-08-26T03:55:12.347Z,100440.81
2022-08-26T03:57:43.998Z,100427.13
2022-08-26T04:00:18.916Z,100435.59
2022-08-26T04:02:51.139Z,100432.38
2022-08-26T04:05:24.496Z,100439.66
2022-08-26T04:07:54.180Z,100436.00
2022-08-26T04:10:29.104Z,100439.66
2022-08-26T04:13:09.446Z,100435.22
2022-08-26T04:15:39.302Z,100438.44
2022-08-26T04:18:15.154Z,100429.13
2022-08-26T04:20:47.424Z,100434.41
2022-08-26T04:23:17.297Z,100436.00
2022-08-26T04:25:44.817Z,100430.31
2022-08-26T04:28:14.883Z,100437.25
2022-08-26T04:30:49.580Z,100434.03
2022-08-26T04:33:32.549Z,100434.03
2022-08-26T04:36:08.102Z,100437.25
2022-08-26T04:38:41.765Z,100435.22
2022-08-26T04:41:14.922Z,100432.75
2022-08-26T04:43:47.508Z,100433.59
2022-08-26T04:46:24.602Z,100430.44
2022-08-26T04:48:57.071Z,100435.72
2022-08-26T04:51:29.356Z,100444.59
2022-08-26T04:54:02.710Z,100440.97
2022-08-26T04:56:42.340Z,100449.50
2022-08-26T04:59:18.150Z,100438.13
2022-08-26T05:01:56.384Z,100441.34
2022-08-26T05:04:28.111Z,100435.66
2022-08-26T05:07:02.322Z,100435.28
2022-08-26T05:09:30.732Z,100419.56
2022-08-26T05:12:05.395Z,100440.97
2022-08-26T05:14:42.146Z,100442.94
2022-08-26T05:17:18.750Z,100445.78
2022-08-26T05:19:51.367Z,100438.50
2022-08-26T05:22:24.503Z,100431.63
2022-08-26T05:24:52.733Z,100445.41
2022-08-26T05:27:28.656Z,100445.34
2022-08-26T05:30:06.714Z,100459.16
2022-08-26T05:32:37.191Z,100456.72
2022-08-26T05:35:08.857Z,100458.75
2022-08-26T05:37:38.235Z,100457.53
2022-08-26T05:40:07.465Z,100458.34
2022-08-26T05:42:38.867Z,100455.06
2022-08-26T05:45:07.313Z,100459.94
2022-08-26T05:47:37.899Z,100460.75
2022-08-26T05:50:21.949Z,100454.31
2022-08-26T05:52:56.334Z,100460.75
2022-08-26T05:55:26.108Z,100456.69
2022-08-26T05:57:56.400Z,100459.06
2022-08-26T06:00:36.049Z,100453.47
2022-08-26T06:03:31.774Z,100465.19
2022-08-26T06:06:20.193Z,100463.94
2022-08-26T06:09:04.499Z,100478.09
2022-08-26T06:11:41.518Z,100476.84
2022-08-26T06:14:19.071Z,100473.56
2022-08-26T06:16:55.331Z,100477.19
2022-08-26T06:19:34.528Z,100486.00
2022-08-26T06:22:25.545Z,100487.31
2022-08-26T06:25:20.322Z,100481.91
2022-08-26T06:27:56.083Z,100484.75
2022-08-26T06:30:29.429Z,100483.09
2022-08-26T06:33:03.071Z,100492.03
2022-08-26T06:35:40.381Z,100495.75
2022-08-26T06:38:16.894Z,100488.47
2022-08-26T06:40:49.209Z,100485.31
2022-08-26T06:43:25.871Z,100490.88
2022-08-26T06:46:17.507Z,100488.53
2022-08-26T06:48:49.010Z,100495.44
2022-08-26T06:51:26.162Z,100489.50
2022-08-26T06:54:00.298Z,100479.41
2022-08-26T06:56:44.075Z,100490.16
2022-08-26T06:59:20.415Z,100491.25
2022-08-26T07:01:51.594Z,100491.75
2022-08-26T07:04:25.028Z,100483.00
2022-08-26T07:07:04.692Z,100485.41
2022-08-26T07:09:38.500Z,100481.91
2022-08-26T07:12:09.639Z,100490.47
2022-08-26T07:14:48.162Z,100486.69
2022-08-26T07:17:20.461Z,100488.78
2022-08-26T07:19:51.658Z,100494.06
2022-08-26T07:22:21.834Z,100494.09
2022-08-26T07:24:50.761Z,100487.97
2022-08-26T07:27:18.896Z,100498.19
2022-08-26T07:29:47.105Z,100492.19
2022-08-26T07:32:17.809Z,100486.06
2022-08-26T07:34:49.041Z,100502.69
2022-08-26T07:37:18.517Z,100499.06
2022-08-26T07:39:59.830Z,100498.22
2022-08-26T07:42:36.142Z,100503.09
2022-08-26T07:45:06.221Z,100496.63
2022-08-26T07:47:34.704Z,100501.50
2022-08-26T07:50:13.599Z,100508.06
2022-08-26T07:52:48.851Z,100504.44
2022-08-26T07:55:25.081Z,100493.97
2022-08-26T07:57:58.767Z,100499.97
2022-08-26T08:00:32.959Z,100504.50
2022-08-26T08:03:06.408Z,100492.31
2022-08-26T08:05:41.233Z,100491.13
2022-08-26T08:08:27.923Z,100493.56
2022-08-26T08:11:04.984Z,100497.25
2022-08-26T08:13:44.926Z,100492.41
2022-08-26T08:16:22.703Z,100498.13
2022-08-26T08:18:59.223Z,100481.53
2022-08-26T08:21:34.030Z,100488.84
2022-08-26T08:24:07.551Z,100494.47
2022-08-26T08:26:44.286Z,100496.88
2022-08-26T08:29:25.701Z,100502.50
2022-08-26T08:32:06.115Z,100496.47
2022-08-26T08:34:51.793Z,100492.44
2022-08-26T08:37:29.756Z,100500.91
2022-08-26T08:40:12.838Z,100479.84
2022-08-26T08:43:02.864Z,100493.69
2022-08-26T08:45:49.875Z,100490.00
2022-08-26T08:48:31.875Z,100483.94
2022-08-26T08:51:08.294Z,100486.28
2022-08-26T08:53:55.018Z,100483.84
2022-08-26T08:56:37.822Z,100471.69
2022-08-26T08:59:24.706Z,100477.78
2022-08-26T09:02:18.504Z,100481.00
2022-08-26T09:05:19.514Z,100478.56
2022-08-26T09:08:06.815Z,100481.00
2022-08-26T09:10:57.981Z,100483.09
2022-08-26T09:13:32.031Z,100469.28
2022-08-26T09:16:27.960Z,100471.31
2022-08-26T09:19:11.268Z,100474.53
2022-08-26T09:21:44.781Z,100472.91
2022-08-26T09:24:24.059Z,100470.44
2022-08-26T09:27:02.285Z,100464.00
2022-08-26T09:29:50.449Z,100468.34
2022-08-26T09:32:30.230Z,100466.91
2022-08-26T09:35:23.565Z,100457.09
2022-08-26T09:37:58.635Z,100455.88
2022-08-26T09:40:40.796Z,100457.06
2022-08-26T09:43:25.310Z,100458.25
2022-08-26T09:46:15.248Z,100450.97
2022-08-26T09:48:53.128Z,100450.81
2022-08-26T09:51:38.678Z,100455.25
2022-08-26T09:54:30.372Z,100445.94
2022-08-26T09:57:26.521Z,100451.19
2022-08-26T09:59:57.384Z,100449.16
2022-08-26T10:02:37.442Z,100444.66
2022-08-26T10:05:18.321Z,100446.16
2022-08-26T10:07:54.111Z,100447.34
2022-08-26T10:10:46.192Z,100440.72
2022-08-26T10:13:41.204Z,100432.56
2022-08-26T10:16:36.052Z,100432.56
2022-08-26T10:19:29.113Z,100433.72
2022-08-26T10:22:45.932Z,100424.34
2022-08-26T10:25:22.634Z,100431.22
2022-08-26T10:28:02.897Z,100419.06
2022-08-26T10:31:14.757Z,100420.78
2022-08-26T10:33:49.412Z,100418.09
2022-08-26T10:37:10.507Z,100419.69
2022-08-26T10:39:46.689Z,100414.88
2022-08-26T10:42:26.806Z,100410.59
2022-08-26T10:45:25.465Z,100415.44
2022-08-26T10:48:07.374Z,100417.44
2022-08-26T10:50:49.048Z,100400.97
2022-08-26T10:53:26.498Z,100406.63
2022-08-26T10:56:05.538Z,100397.72
2022-08-26T10:59:12.754Z,100396.50
2022-08-26T11:02:07.236Z,100395.03
2022-08-26T11:04:44.510Z,100396.31
2022-08-26T11:07:40.763Z,100387.84
2022-08-26T11:10:23.053Z,100397.31
2022-08-26T11:13:04.015Z,100398.16
2022-08-26T11:15:44.396Z,100395.31
2022-08-26T11:18:37.044Z,100391.72
2022-08-26T11:21:47.765Z,100387.69
2022-08-26T11:24:38.964Z,100380.47
2022-08-26T11:27:38.636Z,100384.50
2022-08-26T11:30:35.137Z,100374.91
2022-08-26T11:33:29.810Z,100378.09
2022-08-26T11:36:00.791Z,100380.16
2022-08-26T11:38:46.375Z,100374.94
2022-08-26T11:41:22.381Z,100370.50
2022-08-26T11:43:59.586Z,100345.84
2022-08-26T11:46:37.857Z,100368.03
2022-08-26T11:49:09.835Z,100365.59
2022-08-26T11:51:41.893Z,100363.19
2022-08-26T11:54:18.057Z,100355.00
2022-08-26T11:57:12.940Z,100346.13
2022-08-26T11:59:43.930Z,100357.38
2022-08-26T12:02:17.906Z,100350.38
2022-08-26T12:04:50.824Z,100344.66
2022-08-26T12:07:24.458Z,100346.22
2022-08-26T12:10:00.481Z,100347.25
2022-08-26T12:12:36.126Z,100342.38
2022-08-26T12:15:23.412Z,100333.84
2022-08-26T12:17:54.759Z,100324.09
2022-08-26T12:20:46.617Z,100333.13
2022-08-26T12:23:41.436Z,100319.56
2022-08-26T12:26:23.355Z,100325.28
2022-08-26T12:29:26.788Z,100310.56
2022-08-26T12:32:15.431Z,100305.56
2022-08-26T12:34:52.218Z,100307.63
2022-08-26T12:37:27.621Z,100297.97
2022-08-26T12:40:34.387Z,100296.81
2022-08-26T12:43:15.595Z,100298.53
2022-08-26T12:46:00.911Z,100286.00
2022-08-26T12:48:36.271Z,100284.41
2022-08-26T12:51:27.990Z,100283.69
2022-08-26T12:54:03.300Z,100274.84
2022-08-26T12:56:43.197Z,100273.13
2022-08-26T12:59:25.381Z,100271.25
2022-08-26T13:01:58.650Z,100266.06
2022-08-26T13:04:41.576Z,100264.88
2022-08-26T13:07:24.047Z,100268.53
2022-08-26T13:10:00.984Z,100265.00
2022-08-26T13:12:42.967Z,100256.09
2022-08-26T13:15:22.164Z,100246.34
2022-08-26T13:17:50.433Z,100251.16
2022-08-26T13:20:28.088Z,100237.09
2022-08-26T13:22:59.715Z,100240.72
2022-08-26T13:25:36.383Z,100240.81
2022-08-26T13:28:08.861Z,100239.22
2022-08-26T13:30:46.172Z,100229.13
2022-08-26T13:33:22.992Z,100241.69
2022-08-26T13:35:58.941Z,100232.25
2022-08-26T13:38:33.586Z,100232.59
2022-08-26T13:41:15.593Z,100234.09
2022-08-26T13:43:47.409Z,100224.19
2022-08-26T13:46:23.286Z,100226.50
2022-08-26T13:49:02.381Z,100216.75
2022-08-26T13:51:42.003Z,100211.50
2022-08-26T13:54:24.025Z,100213.84
2022-08-26T13:57:02.552Z,100214.72
2022-08-26T13:59:37.099Z,100206.88
2022-08-26T14:02:17.489Z,100209.56
2022-08-26T14:05:00.146Z,100209.56
2022-08-26T14:07:44.770Z,100209.09
2022-08-26T14:10:25.586Z,100205.06
2022-08-26T14:12:59.605Z,100194.47
2022-08-26T14:15:39.038Z,100196.00
2022-08-26T14:18:27.341Z,100193.59
2022-08-26T14:21:08.026Z,100201.44
2022-08-26T14:23:44.901Z,100200.50
2022-08-26T14:26:28.716Z,100196.19
2022-08-26T14:29:12.392Z,100195.75
2022-08-26T14:31:53.584Z,100200.19
2022-08-26T14:34:30.288Z,100195.50
2022-08-26T14:37:13.546Z,100193.94
2022-08-26T14:39:50.005Z,100193.47
2022-08-26T14:42:31.331Z,100193.47
2022-08-26T14:45:10.268Z,100190.41
2022-08-26T14:47:41.909Z,100189.16
2022-08-26T14:50:23.313Z,100181.78
2022-08-26T14:53:15.252Z,100187.47
2022-08-26T14:55:52.099Z,100171.63
2022-08-26T14:58:34.975Z,100164.59
2022-08-26T15:01:11.197Z,100163.97
2022-08-26T15:03:54.313Z,100162.47
2022-08-26T15:06:29.677Z,100170.38
2022-08-26T15:09:03.540Z,100164.75
2022-08-26T15:11:34.738Z,100157.09
2022-08-26T15:14:06.491Z,100159.25
2022-08-26T15:16:37.826Z,100163.00
2022-08-26T15:19:16.271Z,100167.31
2022-08-26T15:21:49.993Z,100169.09
2022-08-26T15:24:25.946Z,100164.06
2022-08-26T15:26:57.194Z,100180.13
2022-08-26T15:29:30.212Z,100166.78
2022-08-26T15:32:10.023Z,100172.47
2022-08-26T15:34:45.230Z,100178.19
2022-08-26T15:37:22.170Z,100175.91
2022-08-26T15:39:51.391Z,100179.72
2022-08-26T15:42:25.513Z,100180.94
2022-08-26T15:45:00.962Z,100185.91
2022-08-26T15:47:44.430Z,100171.50
2022-08-26T15:50:35.356Z,100187.75
2022-08-26T15:53:05.075Z,100177.22
2022-08-26T15:55:33.366Z,100183.19
2022-08-26T15:58:04.625Z,100183.13
2022-08-26T16:00:40.624Z,100182.72
2022-08-26T16:03:23.932Z,100176.13
2022-08-26T16:06:07.374Z,100182.66
2022-08-26T16:08:45.281Z,100177.41
2022-08-26T16:11:24.379Z,100178.91
2022-08-26T16:14:08.831Z,100184.94
2022-08-26T16:16:47.429Z,100173.97
2022-08-26T16:19:23.797Z,100183.28
2022-08-26T16:21:56.338Z,100188.53
2022-08-26T16:24:36.052Z,100186.13
2022-08-26T16:27:18.039Z,100183.88
2022-08-26T16:29:51.534Z,100178.88
2022-08-26T16:32:31.169Z,100176.91
2022-08-26T16:35:10.766Z,100171.81
2022-08-26T16:40:42.033Z,100182.06
2022-08-26T16:43:15.758Z,100171.78
2022-08-26T16:45:49.179Z,100177.44
2022-08-26T16:48:25.789Z,100173.72
2022-08-26T16:51:04.423Z,100178.50
2022-08-26T16:53:40.321Z,100176.41
2022-08-26T16:56:15.148Z,100177.13
2022-08-26T16:58:54.112Z,100181.13
2022-08-26T17:01:34.030Z,100175.78
2022-08-26T17:04:04.912Z,100175.38
2022-08-26T17:06:45.566Z,100163.69
2022-08-26T17:09:19.435Z,100174.03
2022-08-26T17:11:51.400Z,100160.72
2022-08-26T17:14:25.076Z,100167.06
2022-08-26T17:17:01.605Z,100168.66
2022-08-26T17:19:41.039Z,100169.44
2022-08-26T17:22:23.264Z,100169.81
2022-08-26T17:24:53.796Z,100173.47
2022-08-26T17:27:32.385Z,100175.44
2022-08-26T17:30:05.614Z,100187.59
2022-08-26T17:32:47.633Z,100178.66
2022-08-26T17:35:20.374Z,100178.66
2022-08-26T17:37:56.898Z,100179.44
2022-08-26T17:40:35.145Z,100183.88
2022-08-26T17:43:17.381Z,100169.75
2022-08-26T17:45:51.030Z,100178.56
2022-08-26T17:48:27.413Z,100170.03
2022-08-26T17:51:11.194Z,100170.38
2022-08-26T17:53:50.504Z,100165.50
2022-08-26T17:56:25.489Z,100165.50
2022-08-26T17:59:03.572Z,100154.13
2022-08-26T18:01:39.763Z,100159.38
2022-08-26T18:04:12.476Z,100163.09
2022-08-26T18:06:45.191Z,100172.34
2022-08-26T18:09:21.134Z,100162.59
2022-08-26T18:11:54.424Z,100175.56
2022-08-26T18:14:25.484Z,100161.34
2022-08-26T18:17:03.777Z,100163.38
2022-08-26T18:22:23.259Z,100164.56
2022-08-26T18:25:06.360Z,100167.41
2022-08-26T18:27:45.178Z,100175.09
2022-08-26T18:30:24.436Z,100172.63
2022-08-26T18:32:55.515Z,100168.97
2022-08-26T18:35:33.898Z,100178.31
2022-08-26T18:38:13.802Z,100185.59
2022-08-26T18:40:54.917Z,100171.75
2022-08-26T18:43:29.390Z,100175.84
2022-08-26T18:46:12.435Z,100165.34
2022-08-26T18:48:51.223Z,100173.78
2022-08-26T18:51:29.671Z,100179.56
2022-08-26T18:54:08.374Z,100181.06
2022-08-26T18:56:43.926Z,100184.72
2022-08-26T18:59:27.964Z,100179.13
2022-08-26T19:02:04.780Z,100177.84
2022-08-26T19:04:37.142Z,100183.06
2022-08-26T19:07:15.384Z,100180.22
2022-08-26T19:09:54.022Z,100187.97
2022-08-26T19:12:26.955Z,100181.03
2022-08-26T19:15:03.670Z,100179.44
2022-08-26T19:17:37.420Z,100176.19
2022-08-26T19:20:12.753Z,100181.81
2022-08-26T19:22:48.801Z,100183.13
2022-08-26T19:25:33.816Z,100193.19
2022-08-26T19:28:12.335Z,100190.34
2022-08-26T19:30:53.129Z,100192.78
2022-08-26T19:33:21.770Z,100197.66
2022-08-26T19:35:57.948Z,100197.66
2022-08-26T19:38:31.300Z,100198.47
2022-08-26T19:41:04.879Z,100194.81
2022-08-26T19:43:43.545Z,100200.06
2022-08-26T19:46:23.567Z,100196.00
2022-08-26T19:48:56.523Z,100197.59
2022-08-26T19:51:36.732Z,100198.38
2022-08-26T19:54:12.543Z,100188.69
2022-08-26T19:56:49.588Z,100197.22
2022-08-26T19:59:25.057Z,100189.84
2022-08-26T20:02:01.979Z,100198.84
2022-08-26T20:04:34.448Z,100199.63
2022-08-26T20:07:06.791Z,100193.94
2022-08-26T20:09:38.455Z,100184.66
2022-08-26T20:12:12.488Z,100195.91
2022-08-26T20:14:43.841Z,100184.16
2022-08-26T20:17:22.705Z,100181.41
2022-08-26T20:20:28.480Z,100195.09
2022-08-26T20:23:14.651Z,100208.09
2022-08-26T20:25:47.092Z,100200.78
2022-08-26T20:28:18.419Z,100200.34
2022-08-26T20:30:57.660Z,100208.88
2022-08-26T20:33:31.699Z,100207.63
2022-08-26T20:36:26.986Z,100201.50
2022-08-26T20:39:01.805Z,100209.25
2022-08-26T20:41:35.919Z,100208.00
2022-08-26T20:44:12.211Z,100197.03
2022-08-26T20:46:56.628Z,100183.88
2022-08-26T20:49:30.506Z,100195.38
2022-08-26T20:52:06.193Z,100200.72
2022-08-26T20:54:33.847Z,100205.16
2022-08-26T20:57:07.153Z,100200.78
2022-08-26T20:59:37.747Z,100209.59
2022-08-26T21:02:16.538Z,100217.34
2022-08-26T21:04:57.467Z,100214.13
2022-08-26T21:07:35.775Z,100221.78
2022-08-26T21:10:11.897Z,100221.34
2022-08-26T21:12:47.723Z,100223.81
2022-08-26T21:15:23.871Z,100213.41
2022-08-26T21:17:54.625Z,100228.72
2022-08-26T21:20:25.032Z,100223.03
2022-08-26T21:23:13.809Z,100220.19
2022-08-26T21:25:50.163Z,100215.38
2022-08-26T21:28:29.051Z,100222.22
2022-08-26T21:31:06.286Z,100228.72
2022-08-26T21:33:42.963Z,100222.16
2022-08-26T21:36:18.040Z,100222.16
2022-08-26T21:38:53.307Z,100220.56
2022-08-26T21:41:29.596Z,100225.78
2022-08-26T21:43:59.843Z,100224.63
2022-08-26T21:46:35.847Z,100206.47
2022-08-26T21:49:15.930Z,100218.94
2022-08-26T21:51:52.579Z,100218.13
2022-08-26T21:54:28.445Z,100216.00
2022-08-26T21:57:09.344Z,100210.38
2022-08-26T21:59:45.990Z,100202.69
2022-08-26T22:02:18.165Z,100205.88
2022-08-26T22:04:57.284Z,100201.44
2022-08-26T22:07:33.809Z,100207.47
2022-08-26T22:10:13.334Z,100199.75
2022-08-26T22:12:43.945Z,100197.69
2022-08-26T22:15:18.242Z,100205.88
2022-08-26T22:17:54.047Z,100194.16
2022-08-26T22:20:35.748Z,100189.25
2022-08-26T22:23:13.804Z,100201.78
2022-08-26T22:25:41.496Z,100197.69
2022-08-26T22:28:23.210Z,100195.28
2022-08-26T22:30:50.874Z,100200.56
2022-08-26T22:33:26.449Z,100190.47
2022-08-26T22:36:06.740Z,100193.22
2022-08-26T22:38:42.841Z,100206.66
2022-08-26T22:41:15.937Z,100205.00
2022-08-26T22:43:54.919Z,100203.41
2022-08-26T22:46:27.690Z,100200.56
2022-08-26T22:49:06.482Z,100207.41
2022-08-26T22:51:42.258Z,100209.88
2022-08-26T22:54:19.729Z,100205.00
2022-08-26T22:56:54.743Z,100213.09
2022-08-26T22:59:35.831Z,100207.41
2022-08-26T23:02:09.564Z,100209.00
2022-08-26T23:04:44.738Z,100206.59
2022-08-26T23:07:20.288Z,100213.09
2022-08-26T23:09:53.705Z,100201.78
2022-08-26T23:12:29.370Z,100209.88
2022-08-26T23:15:11.362Z,100201.34
2022-08-26T23:17:55.878Z,100209.00
2022-08-26T23:20:38.166Z,100188.88
2022-08-26T23:23:13.543Z,100206.16
2022-08-26T23:25:43.469Z,100197.63
2022-08-26T23:28:27.891Z,100201.25
2022-08-26T23:31:03.179Z,100194.06
2022-08-26T23:33:55.497Z,100202.06
2022-08-26T23:36:35.064Z,100200.47
2022-08-26T23:39:15.527Z,100200.09
2022-08-26T23:41:46.233Z,100195.19
2022-08-26T23:44:26.791Z,100201.25
2022-08-26T23:46:55.457Z,100198.41
2022-08-26T23:49:34.252Z,100209.00
2022-08-26T23:52:24.453Z,100200.47
2022-08-26T23:54:59.543Z,100200.88
2022-08-26T23:57:38.437Z,100205.34
